Portada
METAR-TAF:

METAR-TAF

Aeroports :

Nan, Tailàndia

latitud: 18-46N, longitud: 100-46E, altitud: 200 m

Observació

L'informe es va fer fa 1 hora i 7 minuts, a les 09:00 UTC
Vent 10 kt del Sud/Sud-Oest, variant entre Sud/Sud-Est i Sud-Oest
Temperatura 40°C
Humitat 22%
Pressió 1005 hPa
Visibilitat: 8000 m

METAR: VTCN 020900Z 20010KT 160V220 8000 NSC 40/14 Q1005 NOSIG

Hora: 17:07 (10:07 UTC)

Pronòstic

L'informe es va fer fa 5 hores i 7 minuts, a les 05:00 UTC
Pronòstic vàlid del 02 a les 06 UTC al 03 a les 06 UTC
Vent 8 kt del Sud/Sud-Oest
Visibilitat: 7000 m
Evolucionant progressivament
l' 02 a les 22 UTC al 02 a les 24 UTC
Visibilitat: 3000 m
boirina
Evolucionant progressivament
l' 03 a les 04 UTC al 03 a les 06 UTC
Visibilitat: 6000 m

TAF: VTCN 020500Z 0206/0306 20008KT 7000 NSC BECMG 0222/0224 3000 BR BECMG 0304/0306 6000 NSW

Observacions i pronòstics meteorològics de més de 4000 aeroports (METAR i TAF).

Les estacions disponibles són els punts grocs i vermells al mapa.

Posi el ratolí al punt desitjat per veure el nom de l'estació.

Feu clic per veure les observacions i els pronòstics meteorològics.

Per canviar el mapa: feu clic els botons verds amb una creu de color negre per apropar; al botó verd amb un guió per allunyar la imatge; o en les fletxes verdes per a mapes adjacents.


METAR-TAF: